Time;durP1;ratioP1;P1;durP2;ratioP2;P2;SDS_P1;SDS_P2;PMS_P1;PMS_P2;Temp;Humidity;BMP_temperature;BMP_pressure;BME280_temperature;BME280_humidity;BME280_pressure;Samples;Min_cycle;Max_cycle;Signal;HPM_P1;HPM_P2
2022/06/29 00:00:05;;;;;;;4.18;2.42;;;16.30;99.90;;;;;;5092343;28;20500;-72
2022/06/29 00:02:31;;;;;;;4.70;2.55;;;16.20;99.90;;;;;;5092432;28;20024;-71
2022/06/29 00:04:57;;;;;;;4.80;2.85;;;16.20;99.90;;;;;;5094959;28;20065;-72
2022/06/29 00:07:22;;;;;;;8.48;3.15;;;16.20;99.90;;;;;;5086230;28;20035;-72
2022/06/29 00:09:48;;;;;;;4.28;2.75;;;16.20;99.90;;;;;;5083289;28;20373;-72
2022/06/29 00:12:14;;;;;;;6.88;2.88;;;16.20;99.90;;;;;;5082131;28;20016;-72
2022/06/29 00:14:42;;;;;;;11.18;3.08;;;16.10;99.90;;;;;;5087376;28;20111;-72
2022/06/29 00:17:12;;;;;;;5.10;2.58;;;16.10;99.90;;;;;;5090525;28;20024;-72
2022/06/29 00:19:39;;;;;;;8.02;2.90;;;16.00;99.90;;;;;;5088255;28;20048;-72
2022/06/29 00:22:06;;;;;;;5.53;2.92;;;16.00;99.90;;;;;;5087283;28;20017;-72
2022/06/29 00:24:32;;;;;;;4.85;2.70;;;16.00;99.90;;;;;;5093223;28;20377;-72
2022/06/29 00:26:59;;;;;;;5.80;2.70;;;16.00;99.90;;;;;;5091005;28;20031;-72
2022/06/29 00:29:25;;;;;;;5.22;3.08;;;15.90;99.90;;;;;;5093125;28;20055;-72
2022/06/29 00:31:51;;;;;;;4.05;2.85;;;15.90;99.90;;;;;;5094485;28;20024;-72
2022/06/29 00:34:17;;;;;;;10.32;3.42;;;15.90;99.90;;;;;;5096688;28;20023;-72
2022/06/29 00:36:43;;;;;;;6.65;2.75;;;15.80;99.90;;;;;;5083563;28;20031;-71
2022/06/29 00:39:09;;;;;;;9.55;3.15;;;15.80;99.90;;;;;;5078979;28;20083;-72
2022/06/29 00:41:43;;;;;;;4.82;3.22;;;15.80;99.90;;;;;;5078997;28;20084;-71
2022/06/29 00:44:13;;;;;;;8.90;3.10;;;15.80;99.90;;;;;;5081210;28;20084;-72
2022/06/29 00:46:47;;;;;;;8.87;3.30;;;15.70;99.90;;;;;;5081118;28;20028;-72
2022/06/29 00:49:15;;;;;;;5.07;3.42;;;15.70;99.90;;;;;;5083580;28;20477;-72
2022/06/29 00:51:47;;;;;;;7.35;3.03;;;15.70;99.90;;;;;;5086156;28;20050;-72
2022/06/29 00:54:18;;;;;;;7.55;3.30;;;15.60;99.90;;;;;;5087769;28;20039;-72
2022/06/29 00:56:44;;;;;;;5.18;3.38;;;15.50;99.90;;;;;;5096385;28;20023;-72
2022/06/29 00:59:12;;;;;;;6.28;2.95;;;15.50;99.90;;;;;;5093991;28;20103;-72
2022/06/29 01:01:40;;;;;;;6.57;3.03;;;15.40;99.90;;;;;;5082924;28;20574;-72
2022/06/29 01:04:06;;;;;;;6.10;3.25;;;15.40;99.90;;;;;;5089268;28;20024;-72
2022/06/29 01:06:32;;;;;;;5.60;3.25;;;15.40;99.90;;;;;;5091728;28;20063;-72
2022/06/29 01:08:58;;;;;;;4.90;3.40;;;15.40;99.90;;;;;;5094949;28;20016;-71
2022/06/29 01:11:24;;;;;;;6.18;3.83;;;15.30;99.90;;;;;;5094761;28;20028;-72
2022/06/29 01:13:50;;;;;;;8.25;3.67;;;15.30;99.90;;;;;;5085208;28;20078;-72
2022/06/29 01:16:16;;;;;;;8.82;4.60;;;15.20;99.90;;;;;;5086073;28;20020;-72
2022/06/29 01:18:42;;;;;;;5.63;3.50;;;15.20;99.90;;;;;;5078944;28;20052;-72
2022/06/29 01:21:10;;;;;;;4.50;3.38;;;15.20;99.90;;;;;;5083758;28;20498;-72
2022/06/29 01:23:37;;;;;;;6.90;3.50;;;15.10;99.90;;;;;;5083080;28;20025;-72
2022/06/29 01:26:07;;;;;;;13.30;4.28;;;15.20;99.90;;;;;;5090695;28;21051;-72
2022/06/29 01:28:34;;;;;;;7.45;3.58;;;15.10;99.90;;;;;;5092455;28;20039;-72
2022/06/29 01:31:00;;;;;;;8.27;3.72;;;15.10;99.90;;;;;;5094090;28;20061;-72
2022/06/29 01:33:26;;;;;;;12.27;3.92;;;15.10;99.90;;;;;;5089203;28;20048;-72
2022/06/29 01:35:52;;;;;;;9.00;3.78;;;15.10;99.90;;;;;;5095976;28;20161;-72
2022/06/29 01:38:19;;;;;;;7.85;3.63;;;15.00;99.90;;;;;;5094221;28;20016;-72
2022/06/29 01:40:45;;;;;;;11.02;4.47;;;14.90;99.90;;;;;;5096948;28;20043;-72
2022/06/29 01:43:11;;;;;;;4.88;3.50;;;14.90;99.90;;;;;;5099000;28;20020;-72
2022/06/29 01:45:37;;;;;;;6.30;3.92;;;14.90;99.90;;;;;;5091311;28;20059;-72
2022/06/29 01:48:04;;;;;;;4.65;3.05;;;14.80;99.90;;;;;;5080918;28;20443;-72
2022/06/29 01:50:30;;;;;;;7.03;3.90;;;14.80;99.90;;;;;;5082733;28;20105;-72
2022/06/29 01:52:56;;;;;;;7.78;4.40;;;14.80;99.90;;;;;;5082977;28;20108;-72
2022/06/29 01:55:22;;;;;;;4.72;3.47;;;14.70;99.90;;;;;;5086759;28;20029;-73
2022/06/29 01:57:48;;;;;;;6.10;3.80;;;14.70;99.90;;;;;;5089654;28;20078;-72
2022/06/29 02:00:14;;;;;;;8.55;3.67;;;14.70;99.90;;;;;;5098899;28;20020;-72
2022/06/29 02:02:40;;;;;;;7.57;3.88;;;14.60;99.90;;;;;;5096254;28;20024;-72
2022/06/29 02:05:06;;;;;;;5.35;3.47;;;14.60;99.90;;;;;;5080258;28;20015;-72
2022/06/29 02:07:32;;;;;;;8.60;4.20;;;14.50;99.90;;;;;;5093383;28;20024;-71
2022/06/29 02:09:58;;;;;;;11.27;4.40;;;14.50;99.90;;;;;;5095800;28;20042;-72
2022/06/29 02:12:24;;;;;;;8.63;3.75;;;14.50;99.90;;;;;;5093956;28;20020;-72
2022/06/29 02:14:49;;;;;;;11.23;3.72;;;14.50;99.90;;;;;;5098351;28;20016;-72
2022/06/29 02:17:15;;;;;;;3.60;3.28;;;14.50;99.90;;;;;;5097090;28;20028;-72
2022/06/29 02:19:41;;;;;;;5.65;3.72;;;14.50;99.90;;;;;;5079643;28;20009;-72
2022/06/29 02:22:07;;;;;;;9.68;3.55;;;14.40;99.90;;;;;;5078581;28;20511;-73
2022/06/29 02:24:33;;;;;;;5.07;3.60;;;14.40;99.90;;;;;;5081210;28;20052;-72
2022/06/29 02:26:58;;;;;;;7.03;3.33;;;14.40;99.90;;;;;;5082232;28;20029;-73
2022/06/29 02:29:24;;;;;;;4.88;3.63;;;14.30;99.90;;;;;;5086986;28;20097;-73
2022/06/29 02:34:43;;;;;;;5.38;3.45;;;14.20;99.90;;;;;;5089863;28;20081;-72
2022/06/29 02:37:10;;;;;;;8.15;3.67;;;14.20;99.90;;;;;;5090822;28;21278;-73
2022/06/29 02:39:35;;;;;;;10.90;4.57;;;14.20;99.90;;;;;;5091574;28;20016;-73
2022/06/29 02:42:01;;;;;;;8.32;3.92;;;14.20;99.90;;;;;;5092506;28;20049;-72
2022/06/29 02:44:27;;;;;;;3.80;3.10;;;14.20;99.90;;;;;;5095612;28;20012;-73
2022/06/29 02:46:53;;;;;;;7.60;3.83;;;14.10;99.90;;;;;;5095052;28;20024;-72
2022/06/29 02:49:19;;;;;;;8.15;3.90;;;14.10;99.90;;;;;;5095421;28;20421;-72
2022/06/29 02:51:45;;;;;;;5.97;3.58;;;14.10;99.90;;;;;;5098110;28;20020;-72
2022/06/29 02:54:11;;;;;;;5.68;3.58;;;14.10;99.90;;;;;;5098118;28;20538;-72
2022/06/29 02:56:36;;;;;;;6.25;3.55;;;14.10;99.90;;;;;;5088547;28;20032;-72
2022/06/29 02:59:02;;;;;;;6.85;3.72;;;14.10;99.90;;;;;;5090350;28;20028;-72
2022/06/29 03:01:28;;;;;;;7.38;3.80;;;14.00;99.90;;;;;;5096869;28;20024;-73
2022/06/29 03:03:55;;;;;;;5.38;3.50;;;14.00;99.90;;;;;;5087598;28;20016;-72
2022/06/29 03:06:20;;;;;;;9.95;4.22;;;14.00;99.90;;;;;;5083108;28;20055;-73
2022/06/29 03:08:46;;;;;;;4.90;4.20;;;14.00;99.90;;;;;;5089812;28;20058;-73
2022/06/29 03:11:12;;;;;;;7.97;4.10;;;14.00;99.90;;;;;;5084745;28;20031;-72
2022/06/29 03:13:38;;;;;;;5.03;3.88;;;14.00;99.90;;;;;;5082394;28;20052;-72
2022/06/29 03:16:04;;;;;;;5.80;4.22;;;14.00;99.90;;;;;;5093558;28;20036;-73
2022/06/29 03:18:30;;;;;;;5.30;3.97;;;13.90;99.90;;;;;;5085828;28;20051;-73
2022/06/29 03:20:56;;;;;;;6.82;3.92;;;13.90;99.90;;;;;;5089038;28;20472;-72
2022/06/29 03:23:22;;;;;;;7.18;4.00;;;13.80;99.90;;;;;;5091172;28;20024;-72
2022/06/29 03:25:48;;;;;;;4.70;4.00;;;13.80;99.90;;;;;;5093632;28;20031;-72
2022/06/29 03:28:14;;;;;;;7.00;4.00;;;13.70;99.90;;;;;;5094312;28;20396;-73
2022/06/29 03:30:40;;;;;;;7.00;4.18;;;13.80;99.90;;;;;;5090675;28;20028;-73
2022/06/29 03:33:06;;;;;;;5.95;3.70;;;13.80;99.90;;;;;;5095824;28;20028;-73
2022/06/29 03:35:33;;;;;;;7.32;3.80;;;13.70;99.90;;;;;;5094473;28;20056;-73
2022/06/29 03:37:59;;;;;;;9.10;3.78;;;13.70;99.90;;;;;;5087355;28;20020;-73
2022/06/29 03:40:25;;;;;;;9.30;4.00;;;13.70;99.90;;;;;;5092458;28;20024;-73
2022/06/29 03:42:51;;;;;;;9.52;4.93;;;13.70;99.90;;;;;;5093687;28;20063;-72
2022/06/29 03:45:17;;;;;;;5.47;4.05;;;13.70;99.90;;;;;;5094086;28;20016;-73
2022/06/29 03:47:43;;;;;;;9.80;4.70;;;13.70;99.90;;;;;;5094409;28;20157;-73
2022/06/29 03:50:09;;;;;;;10.38;3.92;;;13.60;99.90;;;;;;5088678;28;20073;-73
2022/06/29 03:52:35;;;;;;;10.60;4.75;;;13.60;99.90;;;;;;5086709;28;20042;-73
2022/06/29 03:55:01;;;;;;;7.80;3.95;;;13.60;99.90;;;;;;5089712;28;20051;-73
2022/06/29 03:57:27;;;;;;;4.70;4.07;;;13.60;99.90;;;;;;5095852;28;20380;-73
2022/06/29 03:59:53;;;;;;;7.25;4.63;;;13.50;99.90;;;;;;5090167;28;20023;-73
2022/06/29 04:02:18;;;;;;;8.15;4.70;;;13.60;99.90;;;;;;5093683;28;20504;-73
2022/06/29 04:04:44;;;;;;;6.10;4.00;;;13.50;99.90;;;;;;5094730;28;20020;-73
2022/06/29 04:07:10;;;;;;;10.88;4.38;;;13.60;99.90;;;;;;5097294;28;20032;-73
2022/06/29 04:09:36;;;;;;;10.38;4.80;;;13.60;99.90;;;;;;5080433;28;20084;-73
2022/06/29 04:12:02;;;;;;;6.70;4.55;;;13.60;99.90;;;;;;5078604;28;20032;-73
2022/06/29 04:14:28;;;;;;;7.10;4.15;;;13.60;99.90;;;;;;5092512;28;20074;-73
2022/06/29 04:16:56;;;;;;;7.35;4.82;;;13.50;99.90;;;;;;5086739;28;20020;-73
2022/06/29 04:19:23;;;;;;;5.22;4.20;;;13.50;99.90;;;;;;5084414;28;20020;-73
2022/06/29 04:21:50;;;;;;;6.85;4.40;;;13.50;99.90;;;;;;5083695;28;20473;-74
2022/06/29 04:24:17;;;;;;;7.50;4.30;;;13.50;99.90;;;;;;5086951;28;20384;-73
2022/06/29 04:26:43;;;;;;;9.88;4.45;;;13.50;99.90;;;;;;5093303;28;20090;-73
2022/06/29 04:29:10;;;;;;;7.07;4.07;;;13.50;99.90;;;;;;5095530;28;20499;-73
2022/06/29 04:31:35;;;;;;;8.38;5.13;;;13.50;99.90;;;;;;5088472;28;20080;-73
2022/06/29 04:34:02;;;;;;;6.07;4.32;;;13.60;99.90;;;;;;5086670;28;20444;-73
2022/06/29 04:36:28;;;;;;;6.07;4.32;;;13.70;99.90;;;;;;5095212;28;20028;-73
2022/06/29 04:38:55;;;;;;;5.95;4.50;;;13.70;99.90;;;;;;5095489;28;20447;-73
2022/06/29 04:41:21;;;;;;;8.25;4.35;;;13.80;99.90;;;;;;5085127;28;20021;-73
2022/06/29 04:43:48;;;;;;;5.50;4.97;;;13.80;99.90;;;;;;5089829;28;20021;-73
2022/06/29 04:46:20;;;;;;;9.57;4.80;;;13.90;99.90;;;;;;5078900;28;20019;-73
2022/06/29 04:48:48;;;;;;;11.05;4.60;;;13.90;99.90;;;;;;5083544;28;20051;-73
2022/06/29 04:51:17;;;;;;;11.57;4.97;;;13.90;99.90;;;;;;5081028;28;20492;-73
2022/06/29 04:53:44;;;;;;;8.15;4.45;;;14.00;99.90;;;;;;5080912;28;20084;-73
2022/06/29 04:56:10;;;;;;;8.20;4.90;;;14.00;99.90;;;;;;5084634;28;20031;-73
2022/06/29 04:58:36;;;;;;;9.07;4.97;;;14.10;99.90;;;;;;5100271;28;20024;-72
2022/06/29 05:01:02;;;;;;;5.28;4.47;;;14.10;99.90;;;;;;5096246;28;20021;-73
2022/06/29 05:03:28;;;;;;;6.93;4.35;;;14.20;99.90;;;;;;5093560;28;20103;-73
2022/06/29 05:05:54;;;;;;;9.82;4.47;;;14.30;99.90;;;;;;5093976;28;20048;-73
2022/06/29 05:08:20;;;;;;;7.90;4.40;;;14.30;99.90;;;;;;5083603;28;20028;-73
2022/06/29 05:10:46;;;;;;;6.10;3.83;;;14.40;99.90;;;;;;5093917;28;20024;-73
2022/06/29 05:13:11;;;;;;;7.50;4.53;;;14.50;99.90;;;;;;5088762;28;20028;-73
2022/06/29 05:15:38;;;;;;;8.50;4.30;;;14.60;99.90;;;;;;5096960;28;20048;-73
2022/06/29 05:18:04;;;;;;;8.30;4.35;;;14.70;99.90;;;;;;5090954;28;20081;-73
2022/06/29 05:20:30;;;;;;;7.32;4.32;;;14.70;99.90;;;;;;5086312;28;20680;-73
2022/06/29 05:22:56;;;;;;;6.88;4.18;;;14.90;99.90;;;;;;5094586;28;20033;-74
2022/06/29 05:25:22;;;;;;;5.53;4.35;;;15.00;99.90;;;;;;5089513;28;20020;-73
2022/06/29 05:27:48;;;;;;;5.53;4.45;;;15.00;99.90;;;;;;5095277;28;20016;-73
2022/06/29 05:30:15;;;;;;;8.30;4.72;;;15.20;99.90;;;;;;5093241;28;20012;-74
2022/06/29 05:32:41;;;;;;;8.23;4.80;;;15.30;99.90;;;;;;5099758;28;20153;-73
2022/06/29 05:35:08;;;;;;;12.73;5.45;;;15.40;99.90;;;;;;5097404;28;20059;-74
2022/06/29 05:37:34;;;;;;;5.25;4.10;;;15.50;99.90;;;;;;5086035;28;20479;-73
2022/06/29 05:40:00;;;;;;;5.28;4.03;;;15.60;99.90;;;;;;5093037;28;20036;-73
2022/06/29 05:42:26;;;;;;;6.82;4.18;;;15.70;99.90;;;;;;5097163;28;20044;-74
2022/06/29 05:44:52;;;;;;;6.88;4.60;;;15.70;99.90;;;;;;5098598;28;20498;-74
2022/06/29 05:47:18;;;;;;;6.82;4.25;;;15.80;99.90;;;;;;5099344;28;20119;-74
2022/06/29 05:49:44;;;;;;;15.80;5.03;;;15.90;99.90;;;;;;5087248;28;20112;-74
2022/06/29 05:52:10;;;;;;;8.88;4.70;;;16.00;99.90;;;;;;5083233;28;20044;-73
2022/06/29 05:54:36;;;;;;;7.85;4.60;;;16.10;99.90;;;;;;5082243;28;20028;-74
2022/06/29 05:57:02;;;;;;;7.13;4.80;;;16.20;99.90;;;;;;5086513;28;20445;-74
2022/06/29 05:59:27;;;;;;;9.20;4.85;;;16.30;99.90;;;;;;5082271;28;20104;-74
2022/06/29 06:01:54;;;;;;;9.27;4.35;;;16.40;99.90;;;;;;5090802;28;20043;-74
2022/06/29 06:04:19;;;;;;;11.15;4.60;;;16.50;99.90;;;;;;5091930;28;20016;-74
2022/06/29 06:06:45;;;;;;;4.72;4.18;;;16.50;99.90;;;;;;5085367;28;20024;-74
2022/06/29 06:09:11;;;;;;;14.45;4.63;;;16.60;99.90;;;;;;5091229;28;20130;-73
2022/06/29 06:11:37;;;;;;;9.05;4.55;;;16.70;99.90;;;;;;5098955;28;20028;-74
2022/06/29 06:14:03;;;;;;;13.00;5.38;;;16.80;99.90;;;;;;5095951;28;20032;-74
2022/06/29 06:16:29;;;;;;;7.28;4.70;;;16.90;99.90;;;;;;5091076;28;20024;-74
2022/06/29 06:18:55;;;;;;;8.95;3.72;;;17.00;99.90;;;;;;5092857;28;20039;-74
2022/06/29 06:21:22;;;;;;;14.02;4.35;;;17.10;99.90;;;;;;5094331;28;20440;-74
2022/06/29 06:23:48;;;;;;;8.65;4.20;;;17.10;99.90;;;;;;5094503;28;20028;-74
2022/06/29 06:26:14;;;;;;;23.23;5.55;;;17.20;99.90;;;;;;5096620;28;20087;-72
2022/06/29 06:28:40;;;;;;;9.27;4.22;;;17.30;99.90;;;;;;5085486;28;20021;-72
2022/06/29 06:31:07;;;;;;;7.40;4.10;;;17.40;99.90;;;;;;5080298;28;20040;-72
2022/06/29 06:33:34;;;;;;;9.30;3.92;;;17.40;99.90;;;;;;5079060;28;20096;-72
2022/06/29 06:36:00;;;;;;;13.48;5.25;;;17.60;99.90;;;;;;5082610;28;20025;-71
2022/06/29 06:38:25;;;;;;;11.20;4.35;;;17.80;99.90;;;;;;5083346;28;20023;-72
2022/06/29 06:43:36;;;;;;;8.60;4.97;;;18.00;99.90;;;;;;5094738;28;20443;-73
2022/06/29 06:46:01;;;;;;;8.65;4.72;;;18.20;99.90;;;;;;5091739;28;20056;-73
2022/06/29 06:48:27;;;;;;;8.63;3.70;;;18.40;99.90;;;;;;5091090;28;20027;-73
2022/06/29 06:50:53;;;;;;;9.65;4.38;;;18.50;99.90;;;;;;5095071;28;20056;-73
2022/06/29 06:53:19;;;;;;;11.30;4.32;;;18.60;99.90;;;;;;5092479;28;20031;-74
2022/06/29 06:55:45;;;;;;;5.85;3.80;;;18.70;99.90;;;;;;5097140;28;20032;-74
2022/06/29 06:58:10;;;;;;;9.63;3.75;;;18.80;99.90;;;;;;5095796;28;20008;-71
2022/06/29 07:00:36;;;;;;;10.75;3.83;;;18.90;99.90;;;;;;5097721;28;20476;-72
2022/06/29 07:03:02;;;;;;;6.50;3.90;;;19.10;99.90;;;;;;5094403;28;20024;-73
2022/06/29 07:05:28;;;;;;;14.38;4.22;;;19.20;99.90;;;;;;5090118;28;20494;-73
2022/06/29 07:07:54;;;;;;;8.20;3.58;;;19.30;99.90;;;;;;5093703;28;20024;-73
2022/06/29 07:10:20;;;;;;;11.98;3.38;;;19.40;99.90;;;;;;5079599;28;20484;-73
2022/06/29 07:12:46;;;;;;;8.68;3.78;;;19.60;99.90;;;;;;5084853;28;20089;-72
2022/06/29 07:15:11;;;;;;;9.88;4.07;;;19.70;99.90;;;;;;5086577;28;20021;-73
2022/06/29 07:17:37;;;;;;;14.25;4.47;;;19.70;99.90;;;;;;5090330;28;20023;-73
2022/06/29 07:20:06;;;;;;;6.72;3.55;;;20.00;99.90;;;;;;5087423;28;20031;-73
2022/06/29 07:22:32;;;;;;;8.48;4.10;;;20.10;99.90;;;;;;5089170;28;20065;-73
2022/06/29 07:24:57;;;;;;;10.50;4.25;;;20.10;99.90;;;;;;5090494;28;20115;-73
2022/06/29 07:27:23;;;;;;;13.95;4.28;;;20.20;99.90;;;;;;5091222;28;20078;-73
2022/06/29 07:29:52;;;;;;;8.77;3.50;;;20.20;99.90;;;;;;5093325;28;20051;-73
2022/06/29 07:32:19;;;;;;;11.25;3.10;;;20.30;99.90;;;;;;5092167;28;20462;-73
2022/06/29 07:34:45;;;;;;;13.07;4.18;;;20.40;99.90;;;;;;5097524;28;20024;-73
2022/06/29 07:37:11;;;;;;;5.60;3.40;;;20.50;99.90;;;;;;5092630;28;20024;-73
2022/06/29 07:39:37;;;;;;;10.07;3.17;;;20.50;99.90;;;;;;5080994;28;20388;-73
2022/06/29 07:42:03;;;;;;;8.05;3.22;;;20.50;99.90;;;;;;5094372;28;20435;-73
2022/06/29 07:44:30;;;;;;;7.93;3.15;;;20.50;99.90;;;;;;5095004;28;20031;-73
2022/06/29 07:46:56;;;;;;;8.55;3.10;;;20.60;99.90;;;;;;5094075;28;20095;-73
2022/06/29 07:49:23;;;;;;;6.07;3.45;;;20.70;99.90;;;;;;5095630;28;20028;-73
2022/06/29 07:51:49;;;;;;;3.72;2.80;;;20.90;99.90;;;;;;5079215;28;20032;-74
2022/06/29 07:54:15;;;;;;;8.57;3.25;;;20.90;99.90;;;;;;5078756;28;20404;-73
2022/06/29 07:56:41;;;;;;;6.63;2.50;;;21.00;99.90;;;;;;5080642;28;20115;-73
2022/06/29 07:59:07;;;;;;;9.50;2.58;;;21.10;99.90;;;;;;5080649;28;20384;-73
2022/06/29 08:01:33;;;;;;;6.07;2.78;;;21.30;99.90;;;;;;5086094;28;20031;-73
2022/06/29 08:03:59;;;;;;;3.28;2.10;;;21.40;99.90;;;;;;5083055;28;20021;-73
2022/06/29 08:06:25;;;;;;;3.30;2.10;;;21.50;99.90;;;;;;5094412;28;20103;-73
2022/06/29 08:08:51;;;;;;;9.60;2.47;;;21.70;99.90;;;;;;5088319;28;20039;-73
2022/06/29 08:11:18;;;;;;;5.85;2.58;;;21.60;99.90;;;;;;5089463;28;20119;-74
2022/06/29 08:13:43;;;;;;;7.05;2.50;;;21.60;99.90;;;;;;5091667;28;20024;-73
2022/06/29 08:16:09;;;;;;;7.93;2.75;;;21.60;99.90;;;;;;5092922;28;20480;-74
2022/06/29 08:18:36;;;;;;;5.15;2.50;;;21.60;99.90;;;;;;5095742;28;20012;-73
2022/06/29 08:21:03;;;;;;;7.60;2.85;;;21.80;99.90;;;;;;5091809;28;20073;-74
2022/06/29 08:23:29;;;;;;;6.35;2.42;;;22.00;99.90;;;;;;5081154;28;20025;-74
2022/06/29 08:25:56;;;;;;;8.73;2.17;;;22.10;99.90;;;;;;5094490;28;20051;-73
2022/06/29 08:28:23;;;;;;;7.75;2.75;;;22.20;99.90;;;;;;5085767;28;20029;-74
2022/06/29 08:30:49;;;;;;;10.43;2.70;;;22.30;99.90;;;;;;5079174;28;20035;-73
2022/06/29 08:33:15;;;;;;;12.02;2.83;;;22.50;99.90;;;;;;5090613;28;20024;-73
2022/06/29 08:35:41;;;;;;;10.27;2.38;;;22.50;99.90;;;;;;5089474;28;20024;-74
2022/06/29 08:38:07;;;;;;;5.60;2.67;;;22.60;99.90;;;;;;5085296;28;20017;-73
2022/06/29 08:40:45;;;;;;;12.10;2.22;;;22.70;99.90;;;;;;5091252;28;20028;-74
2022/06/29 08:43:19;;;;;;;5.97;2.20;;;22.70;99.90;;;;;;5087928;28;20008;-74
2022/06/29 08:45:48;;;;;;;7.50;2.28;;;22.70;99.90;;;;;;5094438;28;20446;-73
2022/06/29 08:48:16;;;;;;;9.18;3.15;;;22.80;99.90;;;;;;5090137;28;20023;-73
2022/06/29 08:50:44;;;;;;;3.42;2.22;;;22.80;99.90;;;;;;5100042;28;20035;-73
2022/06/29 08:53:14;;;;;;;4.53;1.80;;;23.00;99.90;;;;;;5095870;28;20031;-73
2022/06/29 08:55:47;;;;;;;9.27;3.03;;;23.00;99.90;;;;;;5097934;28;20051;-74
2022/06/29 08:58:24;;;;;;;8.68;2.38;;;23.10;99.90;;;;;;5099308;28;20053;-74
2022/06/29 09:00:50;;;;;;;9.32;2.40;;;23.40;99.90;;;;;;5088555;28;20494;-74
2022/06/29 09:03:18;;;;;;;5.05;2.20;;;23.50;99.90;;;;;;5083101;28;20005;-74
2022/06/29 09:05:55;;;;;;;5.72;2.30;;;23.60;99.90;;;;;;5082721;28;20546;-74
2022/06/29 09:08:21;;;;;;;9.20;2.30;;;23.50;99.90;;;;;;5083751;28;20028;-73
2022/06/29 09:10:47;;;;;;;3.25;1.60;;;23.60;99.90;;;;;;5083151;28;20043;-74
2022/06/29 09:13:21;;;;;;;10.25;2.28;;;23.60;99.90;;;;;;5088905;28;20154;-73
2022/06/29 09:15:55;;;;;;;8.13;2.70;;;23.70;99.90;;;;;;5093121;28;20112;-74
2022/06/29 09:18:32;;;;;;;4.70;1.70;;;23.90;99.90;;;;;;5090584;28;20078;-74
2022/06/29 09:21:02;;;;;;;6.03;2.22;;;23.90;99.90;;;;;;5092376;28;20024;-73
2022/06/29 09:23:30;;;;;;;4.47;2.25;;;23.90;99.90;;;;;;5094683;28;20018;-75
2022/06/29 09:25:56;;;;;;;4.75;1.85;;;23.80;99.90;;;;;;5097918;28;20476;-75
2022/06/29 09:28:28;;;;;;;6.88;2.33;;;23.80;99.90;;;;;;5098935;28;20021;-75
2022/06/29 09:30:56;;;;;;;5.07;1.58;;;23.80;99.90;;;;;;5093166;28;20024;-75
2022/06/29 09:33:33;;;;;;;3.97;2.03;;;23.90;99.90;;;;;;5080570;28;20031;-76
2022/06/29 09:36:18;;;;;;;4.15;2.08;;;24.00;99.90;;;;;;5080110;28;20050;-75
2022/06/29 09:38:44;;;;;;;7.95;2.47;;;24.10;99.90;;;;;;5085646;28;20016;-75
2022/06/29 09:41:13;;;;;;;5.88;2.50;;;24.40;99.90;;;;;;5081912;28;20016;-74
2022/06/29 09:43:46;;;;;;;7.53;2.10;;;24.50;99.90;;;;;;5086396;28;20125;-76
2022/06/29 09:46:14;;;;;;;4.97;2.05;;;24.60;99.90;;;;;;5084873;28;20024;-74
2022/06/29 09:48:41;;;;;;;7.45;1.90;;;24.60;99.90;;;;;;5089390;28;20127;-74
2022/06/29 09:53:59;;;;;;;7.15;2.25;;;24.40;99.90;;;;;;5087823;28;20031;-76
2022/06/29 09:56:29;;;;;;;7.68;1.90;;;24.30;99.90;;;;;;5089034;28;20375;-75
2022/06/29 09:58:58;;;;;;;4.07;1.67;;;24.40;99.90;;;;;;5129697;27;20422;-75
2022/06/29 10:04:11;;;;;;;6.18;2.03;;;24.50;99.90;;;;;;5093245;28;20026;-75
2022/06/29 10:06:37;;;;;;;3.55;1.88;;;24.70;99.90;;;;;;5097128;28;20035;-75
2022/06/29 10:09:04;;;;;;;8.07;2.40;;;24.80;99.90;;;;;;5084423;28;20025;-75
2022/06/29 10:14:43;;;;;;;3.15;1.70;;;24.80;99.90;;;;;;5097938;28;20408;-74
2022/06/29 10:17:16;;;;;;;6.63;2.03;;;25.00;99.90;;;;;;5089366;28;20024;-75
2022/06/29 10:20:28;;;;;;;4.13;2.03;;;25.00;99.90;;;;;;5084641;28;20028;-75
2022/06/29 10:22:54;;;;;;;4.18;1.80;;;25.30;99.90;;;;;;5006254;28;20052;-76
2022/06/29 10:25:27;;;;;;;6.18;2.33;;;25.30;99.90;;;;;;5079178;28;20587;-77
2022/06/29 10:28:16;;;;;;;3.53;1.85;;;25.40;99.90;;;;;;5086678;28;20048;-75
2022/06/29 10:30:43;;;;;;;4.18;1.90;;;25.10;99.90;;;;;;5097472;28;20069;-75
2022/06/29 10:33:37;;;;;;;4.07;1.60;;;25.30;99.90;;;;;;5089433;28;20385;-75
2022/06/29 10:36:09;;;;;;;3.13;1.50;;;25.40;99.50;;;;;;5080194;28;20031;-76
2022/06/29 10:38:58;;;;;;;6.60;2.38;;;25.60;99.90;;;;;;5084833;28;20020;-75
2022/06/29 10:44:09;;;;;;;4.25;1.92;;;25.70;99.20;;;;;;5084535;28;20503;-76
2022/06/29 10:46:57;;;;;;;2.88;1.50;;;25.60;99.20;;;;;;5087427;28;20036;-75
2022/06/29 10:49:24;;;;;;;3.78;1.50;;;25.80;99.00;;;;;;5089960;28;20056;-75
2022/06/29 10:51:50;;;;;;;6.03;1.80;;;25.90;97.60;;;;;;5093354;28;20035;-75
2022/06/29 10:54:30;;;;;;;5.78;2.25;;;25.70;96.30;;;;;;5093938;28;20024;-76
2022/06/29 10:56:56;;;;;;;3.58;1.58;;;25.50;96.70;;;;;;5091403;28;20119;-75
2022/06/29 10:59:35;;;;;;;4.95;1.80;;;25.60;98.50;;;;;;5093843;28;20017;-74
2022/06/29 11:02:10;;;;;;;4.88;1.90;;;25.60;98.30;;;;;;5097456;28;20484;-75
2022/06/29 11:04:37;;;;;;;3.60;1.70;;;25.70;98.00;;;;;;5097885;28;20077;-75
2022/06/29 11:12:47;;;;;;;6.30;1.70;;;26.00;97.00;;;;;;5093820;28;20038;-75
2022/06/29 11:17:57;;;;;;;6.60;1.92;;;26.30;96.00;;;;;;5084672;28;20026;-75
2022/06/29 11:20:24;;;;;;;10.05;1.70;;;26.40;97.50;;;;;;5084360;28;20025;-75
2022/06/29 11:22:52;;;;;;;5.47;1.70;;;26.50;97.30;;;;;;5077998;28;20017;-75
2022/06/29 11:25:18;;;;;;;4.82;1.90;;;26.50;97.80;;;;;;5080531;28;20067;-75
2022/06/29 11:27:44;;;;;;;6.75;1.90;;;26.70;97.10;;;;;;5083081;28;20024;-75
2022/06/29 11:30:12;;;;;;;5.15;1.45;;;26.70;97.70;;;;;;5090598;28;20026;-76
2022/06/29 11:32:39;;;;;;;4.10;2.00;;;26.70;95.90;;;;;;5087351;28;20110;-72
2022/06/29 11:35:06;;;;;;;5.93;1.73;;;26.70;95.50;;;;;;5084978;28;20492;-73
2022/06/29 11:37:32;;;;;;;4.63;1.30;;;26.60;96.10;;;;;;5090988;28;20024;-75
2022/06/29 11:39:58;;;;;;;2.95;1.35;;;26.70;96.40;;;;;;5084650;28;20030;-75
2022/06/29 11:45:19;;;;;;;5.05;1.63;;;26.90;96.00;;;;;;5090971;28;20050;-75
2022/06/29 11:47:55;;;;;;;2.75;1.60;;;27.00;95.60;;;;;;5093852;28;20480;-74
2022/06/29 11:50:21;;;;;;;2.97;1.13;;;27.00;95.20;;;;;;5094396;28;20036;-74
2022/06/29 11:52:51;;;;;;;4.45;1.50;;;26.90;94.10;;;;;;5095905;28;20030;-73
2022/06/29 11:55:40;;;;;;;4.90;1.42;;;27.00;95.20;;;;;;5095699;28;20463;-74
2022/06/29 11:58:09;;;;;;;6.50;1.58;;;27.00;96.40;;;;;;5082630;28;20025;-74
2022/06/29 12:00:38;;;;;;;1.83;1.30;;;27.00;94.90;;;;;;5077200;28;20473;-74
2022/06/29 12:03:04;;;;;;;2.75;1.30;;;26.90;93.60;;;;;;5081102;28;20055;-73
2022/06/29 12:05:30;;;;;;;6.22;1.58;;;27.00;95.90;;;;;;5094155;28;20012;-74
2022/06/29 12:07:56;;;;;;;3.20;1.77;;;27.00;94.70;;;;;;5097032;28;20088;-74
2022/06/29 12:10:22;;;;;;;3.83;1.20;;;27.20;92.80;;;;;;5093443;28;20072;-74
2022/06/29 12:12:47;;;;;;;6.88;1.60;;;27.20;92.60;;;;;;5081570;28;20031;-74
2022/06/29 12:15:14;;;;;;;2.75;1.45;;;27.30;91.90;;;;;;5090574;28;20023;-74
2022/06/29 12:17:40;;;;;;;8.90;1.58;;;27.40;91.60;;;;;;5089138;28;20039;-74
2022/06/29 12:20:06;;;;;;;6.53;1.65;;;27.40;92.40;;;;;;5091973;28;20023;-73
2022/06/29 12:22:36;;;;;;;3.58;1.27;;;27.50;93.00;;;;;;5093379;28;20028;-74
2022/06/29 12:25:01;;;;;;;3.70;1.65;;;27.50;93.60;;;;;;5095691;28;20027;-75
2022/06/29 12:27:27;;;;;;;4.10;1.52;;;27.40;90.70;;;;;;5092455;28;20025;-74
2022/06/29 12:29:53;;;;;;;4.50;1.48;;;27.40;92.60;;;;;;5076916;28;20080;-74
2022/06/29 12:32:19;;;;;;;3.15;1.30;;;27.30;91.80;;;;;;5079785;28;20028;-74
2022/06/29 12:34:45;;;;;;;3.15;1.35;;;27.40;93.00;;;;;;5079252;28;20032;-74
2022/06/29 12:37:10;;;;;;;2.90;1.52;;;27.50;91.40;;;;;;5081505;28;20024;-74
2022/06/29 12:39:36;;;;;;;4.95;1.45;;;27.60;90.40;;;;;;5087225;28;20021;-74
2022/06/29 12:42:03;;;;;;;3.17;1.35;;;27.50;88.60;;;;;;5088307;28;20169;-74
2022/06/29 12:44:29;;;;;;;1.95;1.20;;;27.60;90.70;;;;;;5085374;28;20068;-74
2022/06/29 12:46:55;;;;;;;4.70;1.73;;;27.80;90.20;;;;;;5089454;28;20074;-74
2022/06/29 12:49:22;;;;;;;2.75;1.42;;;27.80;86.10;;;;;;5090791;28;20021;-74
2022/06/29 12:51:48;;;;;;;3.28;1.45;;;28.00;90.60;;;;;;5091821;28;20080;-74
2022/06/29 12:54:14;;;;;;;5.55;1.30;;;28.20;90.70;;;;;;5094563;28;20035;-74
2022/06/29 12:56:40;;;;;;;3.50;1.65;;;28.40;90.60;;;;;;5093850;28;20024;-74
2022/06/29 12:59:06;;;;;;;3.08;1.30;;;28.50;86.60;;;;;;5096175;28;20503;-73
2022/06/29 13:01:31;;;;;;;4.65;1.25;;;28.60;84.50;;;;;;5079523;28;20532;-73
2022/06/29 13:03:57;;;;;;;3.40;1.30;;;28.70;88.10;;;;;;5076890;28;20031;-73
2022/06/29 13:06:23;;;;;;;3.58;1.20;;;28.80;87.30;;;;;;5083506;28;20033;-73
2022/06/29 13:08:49;;;;;;;4.07;1.70;;;28.80;78.80;;;;;;5094403;28;20020;-72
2022/06/29 13:11:15;;;;;;;3.95;1.30;;;28.70;87.10;;;;;;5094846;28;20048;-74
2022/06/29 13:13:41;;;;;;;4.57;1.10;;;28.60;79.60;;;;;;5087483;28;20030;-73